createdAt,value
2019-01-31T00:01:56.859Z,2.92
2019-01-31T00:04:55.614Z,2.80
2019-01-31T00:07:55.996Z,3.25
2019-01-31T00:10:47.405Z,2.80
2019-01-31T00:13:35.729Z,2.50
2019-01-31T00:16:12.759Z,2.65
2019-01-31T00:18:50.063Z,2.65
2019-01-31T00:21:44.211Z,3.00
2019-01-31T00:24:21.703Z,2.55
2019-01-31T00:26:53.230Z,2.95
2019-01-31T00:29:29.876Z,2.70
2019-01-31T00:32:19.528Z,2.95
2019-01-31T00:35:06.314Z,2.37
2019-01-31T00:37:43.401Z,2.70
2019-01-31T00:40:18.129Z,3.22
2019-01-31T00:43:01.689Z,2.92
2019-01-31T00:45:36.172Z,2.87
2019-01-31T00:48:07.701Z,2.83
2019-01-31T00:50:45.421Z,2.60
2019-01-31T00:53:22.937Z,2.75
2019-01-31T00:56:03.473Z,2.50
2019-01-31T00:58:43.762Z,2.80
2019-01-31T01:01:27.408Z,2.40
2019-01-31T01:03:59.194Z,2.50
2019-01-31T01:06:39.730Z,2.65
2019-01-31T01:09:33.938Z,2.80
2019-01-31T01:12:05.498Z,2.60
2019-01-31T01:14:49.188Z,2.58
2019-01-31T01:17:21.129Z,2.62
2019-01-31T01:20:01.489Z,2.87
2019-01-31T01:22:38.771Z,2.83
2019-01-31T01:25:19.480Z,2.52
2019-01-31T01:27:53.699Z,2.70
2019-01-31T01:30:50.874Z,2.77
2019-01-31T01:33:22.438Z,2.80
2019-01-31T01:35:56.752Z,2.80
2019-01-31T01:38:52.402Z,2.72
2019-01-31T01:41:41.526Z,2.60
2019-01-31T01:44:34.114Z,2.92
2019-01-31T01:47:17.685Z,2.98
2019-01-31T01:49:49.244Z,2.77
2019-01-31T01:52:20.769Z,2.52
2019-01-31T01:54:58.108Z,3.08
2019-01-31T01:57:44.713Z,2.85
2019-01-31T02:00:31.111Z,2.80
2019-01-31T02:03:14.744Z,2.35
2019-01-31T02:05:55.155Z,2.60
2019-01-31T02:09:01.514Z,2.80
2019-01-31T02:11:59.794Z,2.60
2019-01-31T02:14:59.988Z,2.50
2019-01-31T02:17:34.116Z,2.70
2019-01-31T02:20:29.292Z,2.60
2019-01-31T02:23:12.995Z,2.90
2019-01-31T02:26:16.723Z,2.83
2019-01-31T02:28:54.436Z,2.95
2019-01-31T02:31:28.769Z,2.65
2019-01-31T02:34:29.499Z,2.80
2019-01-31T02:37:06.611Z,2.72
2019-01-31T02:40:05.608Z,2.90
2019-01-31T02:42:49.355Z,2.42
2019-01-31T02:45:45.102Z,2.60
2019-01-31T02:48:34.422Z,2.50
2019-01-31T02:51:17.803Z,2.58
2019-01-31T02:53:58.427Z,2.80
2019-01-31T02:56:47.185Z,2.50
2019-01-31T02:59:21.238Z,2.62
2019-01-31T03:02:05.389Z,2.98
2019-01-31T03:04:39.606Z,3.00
2019-01-31T03:07:17.051Z,2.60
2019-01-31T03:09:54.906Z,2.65
2019-01-31T03:12:30.898Z,3.00
2019-01-31T03:15:14.681Z,2.60
2019-01-31T03:18:02.732Z,2.87
2019-01-31T03:20:36.854Z,3.00
2019-01-31T03:23:25.885Z,2.77
2019-01-31T03:26:03.244Z,2.50
2019-01-31T03:28:40.376Z,2.90
2019-01-31T03:31:20.578Z,2.83
2019-01-31T03:34:27.242Z,2.80
2019-01-31T03:37:11.237Z,2.75
2019-01-31T03:40:07.024Z,3.08
2019-01-31T03:42:43.114Z,2.85
2019-01-31T03:45:20.541Z,2.75
2019-01-31T03:48:24.167Z,2.80
2019-01-31T03:51:13.987Z,3.27
2019-01-31T03:54:10.122Z,2.80
2019-01-31T03:56:44.376Z,3.10
2019-01-31T03:59:18.873Z,2.98
2019-01-31T04:01:56.864Z,2.83
2019-01-31T04:04:37.026Z,3.25
2019-01-31T04:07:05.341Z,2.98
2019-01-31T04:09:33.607Z,2.87
2019-01-31T04:12:01.874Z,3.45
2019-01-31T04:14:30.240Z,3.08
2019-01-31T04:16:58.512Z,3.00
2019-01-31T04:19:26.780Z,3.00
2019-01-31T04:21:55.165Z,3.22
2019-01-31T04:24:23.429Z,3.08
2019-01-31T04:26:51.705Z,2.92
2019-01-31T04:29:20.115Z,3.20
2019-01-31T04:31:48.440Z,3.08
2019-01-31T04:34:16.732Z,2.95
2019-01-31T04:36:45.043Z,3.08
2019-01-31T04:39:13.584Z,3.10
2019-01-31T04:41:41.859Z,2.90
2019-01-31T04:44:10.161Z,2.95
2019-01-31T04:46:38.499Z,3.25
2019-01-31T04:49:06.763Z,3.20
2019-01-31T04:51:35.067Z,3.33
2019-01-31T04:54:03.402Z,3.30
2019-01-31T04:56:31.670Z,3.33
2019-01-31T04:58:59.969Z,2.98
2019-01-31T05:01:28.230Z,3.15
2019-01-31T05:03:56.813Z,3.22
2019-01-31T05:06:25.090Z,3.15
2019-01-31T05:08:53.370Z,3.47
2019-01-31T05:11:21.650Z,3.30
2019-01-31T05:13:49.947Z,3.20
2019-01-31T05:16:18.491Z,3.00
2019-01-31T05:18:46.833Z,3.37
2019-01-31T05:21:15.129Z,3.30
2019-01-31T05:23:43.394Z,3.20
2019-01-31T05:26:11.689Z,3.40
2019-01-31T05:28:40.009Z,3.12
2019-01-31T05:31:08.355Z,3.00
2019-01-31T05:33:36.631Z,3.50
2019-01-31T05:36:04.997Z,3.10
2019-01-31T05:38:33.262Z,3.90
2019-01-31T05:41:01.534Z,3.10
2019-01-31T05:43:29.820Z,3.42
2019-01-31T05:45:58.092Z,3.35
2019-01-31T05:48:26.364Z,3.55
2019-01-31T05:50:54.734Z,3.60
2019-01-31T05:53:23.002Z,3.10
2019-01-31T05:55:51.287Z,3.12
2019-01-31T05:58:19.656Z,3.27
2019-01-31T06:00:47.931Z,3.55
2019-01-31T06:03:16.202Z,3.17
2019-01-31T06:05:44.512Z,3.58
2019-01-31T06:08:13.161Z,3.20
2019-01-31T06:10:41.490Z,3.62
2019-01-31T06:13:09.814Z,3.00
2019-01-31T06:15:38.088Z,3.58
2019-01-31T06:18:06.360Z,3.17
2019-01-31T06:20:34.648Z,3.45
2019-01-31T06:23:02.934Z,3.17
2019-01-31T06:25:31.200Z,2.87
2019-01-31T06:27:59.491Z,3.30
2019-01-31T06:30:27.765Z,3.02
2019-01-31T06:32:56.025Z,3.20
2019-01-31T06:35:24.316Z,3.00
2019-01-31T06:37:52.584Z,3.10
2019-01-31T06:40:21.447Z,3.02
2019-01-31T06:42:50.166Z,3.33
2019-01-31T06:45:20.172Z,3.15
2019-01-31T06:47:48.444Z,3.10
2019-01-31T06:50:16.735Z,3.15
2019-01-31T06:52:45.010Z,2.98
2019-01-31T06:55:13.272Z,3.30
2019-01-31T06:57:41.701Z,3.00
2019-01-31T07:00:15.533Z,3.30
2019-01-31T07:02:43.818Z,3.40
2019-01-31T07:05:12.184Z,3.37
2019-01-31T07:07:40.821Z,3.33
2019-01-31T07:10:14.991Z,2.92
2019-01-31T07:12:43.305Z,3.45
2019-01-31T07:15:12.286Z,3.20
2019-01-31T07:17:40.916Z,3.45
2019-01-31T07:20:14.592Z,3.83
2019-01-31T07:22:42.857Z,3.62
2019-01-31T07:25:14.396Z,3.70
2019-01-31T07:27:43.008Z,3.20
2019-01-31T07:30:13.986Z,3.33
2019-01-31T07:32:42.240Z,3.25
2019-01-31T07:35:12.698Z,3.55
2019-01-31T07:37:40.968Z,3.40
2019-01-31T07:40:12.035Z,3.33
2019-01-31T07:42:40.335Z,3.33
2019-01-31T07:45:11.865Z,3.60
2019-01-31T07:47:40.131Z,3.20
2019-01-31T07:50:14.534Z,3.17
2019-01-31T07:52:42.799Z,3.15
2019-01-31T07:55:11.839Z,3.17
2019-01-31T07:57:40.242Z,3.47
2019-01-31T08:00:16.781Z,2.92
